Time;durP1;ratioP1;P1;durP2;ratioP2;P2;SDS_P1;SDS_P2;PMS_P1;PMS_P2;Temp;Humidity;BMP_temperature;BMP_pressure;BME280_temperature;BME280_humidity;BME280_pressure;Samples;Min_cycle;Max_cycle;Signal;HPM_P1;HPM_P2
2023/10/01 00:00:26;;;;;;;26.17;19.10;;;;;;;12.31;100.00;102296.56;5053047;28;20025;-64
2023/10/01 00:02:57;;;;;;;27.85;18.92;;;;;;;12.28;100.00;102308.22;5066446;28;20052;-64
2023/10/01 00:05:24;;;;;;;26.52;18.20;;;;;;;12.27;100.00;102297.41;5067451;28;20024;-64
2023/10/01 00:07:51;;;;;;;26.35;18.63;;;;;;;12.27;100.00;102298.25;5051404;28;20025;-63
2023/10/01 00:10:18;;;;;;;24.77;18.25;;;;;;;12.26;100.00;102304.91;5059037;28;20060;-64
2023/10/01 00:12:48;;;;;;;25.88;18.63;;;;;;;12.26;100.00;102306.84;5055813;28;20032;-62
2023/10/01 00:15:19;;;;;;;26.27;18.38;;;;;;;12.25;100.00;102297.69;5065527;28;20047;-62
2023/10/01 00:17:45;;;;;;;25.17;18.02;;;;;;;12.30;100.00;102302.41;5051487;28;20452;-62
2023/10/01 00:22:41;;;;;;;25.45;18.60;;;;;;;12.31;100.00;102310.44;5069506;28;20040;-63
2023/10/01 00:25:07;;;;;;;26.52;18.52;;;;;;;12.30;100.00;102310.72;5054704;28;20025;-63
2023/10/01 00:27:32;;;;;;;26.48;17.98;;;;;;;12.27;100.00;102311.28;5054946;28;20483;-63
2023/10/01 00:29:58;;;;;;;25.83;18.45;;;;;;;12.31;100.00;102306.84;5056385;28;20130;-62
2023/10/01 00:32:23;;;;;;;25.73;18.27;;;;;;;12.30;100.00;102307.94;5065766;28;20044;-62
2023/10/01 00:34:48;;;;;;;27.63;18.95;;;;;;;12.32;100.00;102312.09;5062518;28;20476;-63
2023/10/01 00:37:14;;;;;;;26.10;18.63;;;;;;;12.34;100.00;102300.72;5071860;28;20111;-63
2023/10/01 00:39:39;;;;;;;26.23;18.75;;;;;;;12.39;100.00;102289.59;5071422;28;20429;-63
2023/10/01 00:42:06;;;;;;;25.67;18.13;;;;;;;12.38;100.00;102295.41;5067371;28;20112;-63
2023/10/01 00:44:34;;;;;;;25.33;18.00;;;;;;;12.39;100.00;102292.38;5067391;28;20060;-62
2023/10/01 00:46:59;;;;;;;25.02;18.63;;;;;;;12.47;100.00;102296.50;5063978;28;20035;-63
2023/10/01 00:49:26;;;;;;;25.33;17.83;;;;;;;12.46;100.00;102294.84;5054728;28;20029;-62
2023/10/01 00:51:52;;;;;;;24.88;17.55;;;;;;;12.44;100.00;102280.44;5071220;28;20104;-63
2023/10/01 00:54:17;;;;;;;26.75;18.23;;;;;;;12.42;100.00;102288.19;5071511;28;20472;-63
2023/10/01 00:56:44;;;;;;;24.70;17.98;;;;;;;12.36;100.00;102281.03;5056751;28;20366;-64
2023/10/01 00:59:10;;;;;;;26.88;18.10;;;;;;;12.29;100.00;102279.34;5071836;28;20154;-62
2023/10/01 01:01:39;;;;;;;24.67;17.95;;;;;;;12.26;100.00;102274.38;5056677;28;20480;-62
2023/10/01 01:04:09;;;;;;;23.75;16.98;;;;;;;12.20;100.00;102272.72;5069171;28;20032;-63
2023/10/01 01:06:36;;;;;;;24.38;17.67;;;;;;;12.13;100.00;102272.19;5055195;28;20036;-63
2023/10/01 01:09:02;;;;;;;24.55;17.42;;;;;;;12.05;100.00;102265.28;5067909;28;20093;-63
2023/10/01 01:11:27;;;;;;;24.00;16.80;;;;;;;12.04;100.00;102263.66;5056749;28;20025;-63
2023/10/01 01:13:52;;;;;;;24.10;17.13;;;;;;;12.01;100.00;102267.78;5061175;28;20040;-63
2023/10/01 01:16:20;;;;;;;24.13;17.70;;;;;;;12.01;100.00;102273.34;5057957;28;20112;-62
2023/10/01 01:18:47;;;;;;;23.95;17.00;;;;;;;11.98;100.00;102268.38;5050428;28;20093;-62
2023/10/01 01:21:16;;;;;;;24.75;17.05;;;;;;;11.98;100.00;102271.13;5061816;28;20039;-63
2023/10/01 01:23:41;;;;;;;25.02;17.13;;;;;;;11.98;100.00;102265.59;5051767;28;20028;-64
2023/10/01 01:26:10;;;;;;;25.52;16.85;;;;;;;12.00;100.00;102263.34;5065591;28;20024;-61
2023/10/01 01:28:35;;;;;;;24.90;16.80;;;;;;;11.99;100.00;102269.19;5061706;28;20016;-63
2023/10/01 01:31:03;;;;;;;24.15;16.13;;;;;;;12.00;100.00;102263.34;5056231;28;20025;-62
2023/10/01 01:33:32;;;;;;;24.35;17.15;;;;;;;12.01;100.00;102262.25;5058473;28;20029;-62
2023/10/01 01:35:58;;;;;;;23.98;16.77;;;;;;;11.97;100.00;102257.50;5058690;28;20040;-63
2023/10/01 01:38:24;;;;;;;26.15;17.20;;;;;;;11.95;100.00;102254.22;5060510;28;20029;-63
2023/10/01 01:40:51;;;;;;;24.67;17.00;;;;;;;11.90;100.00;102245.88;5071193;28;20044;-63
2023/10/01 01:43:30;;;;;;;23.73;16.15;;;;;;;11.85;100.00;102255.03;5057154;28;20053;-62
2023/10/01 01:46:00;;;;;;;25.00;16.70;;;;;;;11.78;100.00;102238.69;5062734;28;20424;-63
2023/10/01 01:50:55;;;;;;;24.35;16.85;;;;;;;11.71;100.00;102246.47;5060211;28;20041;-63
2023/10/01 01:53:21;;;;;;;22.13;16.42;;;;;;;11.65;100.00;102251.19;5052459;28;20102;-63
2023/10/01 01:55:50;;;;;;;23.48;16.50;;;;;;;11.61;100.00;102241.78;5065016;28;20056;-62
2023/10/01 01:58:23;;;;;;;24.55;16.67;;;;;;;11.59;100.00;102245.94;5070889;28;20566;-63
2023/10/01 02:01:07;;;;;;;24.10;16.10;;;;;;;11.55;100.00;102246.50;5069234;28;20033;-63
2023/10/01 02:03:33;;;;;;;;;;;;;;;11.61;100.00;102240.94;5064188;28;20021;-62
2023/10/01 02:05:59;;;;;;;24.70;16.17;;;;;;;11.53;100.00;102243.16;5051957;28;19920;-63
2023/10/01 02:08:24;;;;;;;23.33;15.85;;;;;;;11.53;100.00;102242.31;5051251;28;20313;-62
2023/10/01 02:10:51;;;;;;;24.75;16.38;;;;;;;11.53;100.00;102232.09;5058894;28;20052;-62
2023/10/01 02:13:17;;;;;;;22.48;16.13;;;;;;;11.51;100.00;102230.72;5057367;28;20036;-62
2023/10/01 02:15:44;;;;;;;24.45;16.10;;;;;;;11.49;100.00;102239.28;5053322;28;20037;-62
2023/10/01 02:18:09;;;;;;;24.90;16.85;;;;;;;11.45;100.00;102234.56;5068338;28;20106;-62
2023/10/01 02:20:36;;;;;;;23.45;16.67;;;;;;;11.41;100.00;102233.47;5053223;28;20060;-62
2023/10/01 02:23:04;;;;;;;24.67;16.67;;;;;;;11.38;100.00;102227.38;5059064;28;20052;-62
2023/10/01 02:25:39;;;;;;;24.30;16.33;;;;;;;11.34;100.00;102225.44;5065235;28;20036;-62
2023/10/01 02:28:13;;;;;;;24.33;17.13;;;;;;;11.33;100.00;102221.84;5068506;28;20036;-62
2023/10/01 02:30:42;;;;;;;23.75;16.38;;;;;;;11.30;100.00;102221.56;5060285;28;20032;-62
2023/10/01 02:33:20;;;;;;;24.17;16.15;;;;;;;11.28;100.00;102219.06;5041984;28;20037;-62
2023/10/01 02:35:49;;;;;;;25.65;17.05;;;;;;;11.30;100.00;102225.16;5060616;28;20400;-62
2023/10/01 02:41:02;;;;;;;23.73;16.02;;;;;;;11.27;100.00;102225.72;5069503;28;20051;-63
2023/10/01 02:43:35;;;;;;;25.00;16.73;;;;;;;11.23;100.00;102228.22;5066401;28;20029;-62
2023/10/01 02:46:09;;;;;;;25.05;16.55;;;;;;;11.21;100.00;102226.84;5065543;28;20069;-63
2023/10/01 02:48:34;;;;;;;25.20;16.80;;;;;;;11.18;100.00;102239.31;5074078;28;20448;-62
2023/10/01 02:51:15;;;;;;;23.33;15.63;;;;;;;11.16;100.00;102238.75;5052897;28;20037;-63
2023/10/01 02:54:05;;;;;;;24.25;16.15;;;;;;;11.15;100.00;102234.31;5063019;28;20032;-63
2023/10/01 02:56:52;;;;;;;23.00;16.10;;;;;;;11.15;100.00;102228.75;5055231;28;20025;-62
2023/10/01 02:59:18;;;;;;;24.67;16.63;;;;;;;11.13;100.00;102235.69;5054635;28;20090;-63
2023/10/01 03:01:47;;;;;;;23.30;16.58;;;;;;;11.08;100.00;102231.81;5073415;28;20149;-63
2023/10/01 03:04:17;;;;;;;24.83;16.55;;;;;;;11.09;100.00;102232.66;5066917;28;20040;-63
2023/10/01 03:06:56;;;;;;;26.02;16.75;;;;;;;11.07;100.00;102226.56;5068162;28;20043;-62
2023/10/01 03:09:31;;;;;;;23.83;16.63;;;;;;;11.05;100.00;102217.69;5054118;28;20035;-62
2023/10/01 03:12:24;;;;;;;24.15;16.15;;;;;;;11.02;100.00;102224.59;5069270;28;20147;-62
2023/10/01 03:15:00;;;;;;;22.73;16.02;;;;;;;10.99;100.00;102216.03;5068542;28;20451;-62
2023/10/01 03:17:35;;;;;;;23.83;15.63;;;;;;;11.02;100.00;102218.22;5066833;28;20166;-63
2023/10/01 03:20:19;;;;;;;22.15;14.80;;;;;;;11.01;100.00;102216.56;5060926;28;20028;-62
2023/10/01 03:22:51;;;;;;;22.02;14.95;;;;;;;11.00;100.00;102212.16;5059965;28;20037;-62
2023/10/01 03:25:28;;;;;;;25.33;15.43;;;;;;;10.99;100.00;102216.03;5053661;28;20060;-62
2023/10/01 03:27:58;;;;;;;23.38;15.50;;;;;;;10.97;100.00;102213.50;5061490;28;20043;-62
2023/10/01 03:30:31;;;;;;;24.95;16.08;;;;;;;10.95;100.00;102212.13;5068106;28;20024;-63
2023/10/01 03:33:07;;;;;;;25.35;16.48;;;;;;;10.92;100.00;102211.56;5055798;28;20036;-63
2023/10/01 03:35:34;;;;;;;24.88;15.65;;;;;;;10.91;100.00;102214.63;5059877;28;20474;-63
2023/10/01 03:38:09;;;;;;;23.10;15.90;;;;;;;10.89;100.00;102214.91;5072918;28;20115;-62
2023/10/01 03:40:43;;;;;;;26.08;16.15;;;;;;;10.88;100.00;102213.25;5060970;28;20053;-62
2023/10/01 03:43:08;;;;;;;24.05;15.32;;;;;;;10.86;100.00;102200.78;5054080;28;20021;-61
2023/10/01 03:47:59;;;;;;;23.60;15.63;;;;;;;10.88;100.00;102207.69;5073391;28;20037;-62
2023/10/01 03:50:25;;;;;;;24.08;15.68;;;;;;;10.86;100.00;102204.38;5066682;28;20733;-62
2023/10/01 03:52:54;;;;;;;25.23;16.33;;;;;;;10.85;100.00;102205.47;5055010;28;20540;-62
2023/10/01 03:55:30;;;;;;;24.30;15.82;;;;;;;10.83;100.00;102209.63;5063229;28;20106;-62
2023/10/01 03:58:06;;;;;;;24.30;16.10;;;;;;;10.81;100.00;102206.28;5066334;28;20028;-62
2023/10/01 04:03:03;;;;;;;25.17;15.25;;;;;;;10.76;100.00;102210.75;5053266;28;20048;-63
2023/10/01 04:05:31;;;;;;;23.05;15.15;;;;;;;10.80;100.00;102213.78;5069731;28;20028;-62
2023/10/01 04:08:07;;;;;;;23.63;15.13;;;;;;;10.80;100.00;102215.72;5072271;28;20032;-62
2023/10/01 04:10:34;;;;;;;22.77;15.10;;;;;;;10.79;100.00;102200.19;5055283;28;20116;-62
2023/10/01 04:13:11;;;;;;;22.70;15.10;;;;;;;10.80;100.00;102201.88;5056967;28;20086;-62
2023/10/01 04:15:40;;;;;;;22.10;15.20;;;;;;;10.80;100.00;102202.72;5042719;28;20673;-62
2023/10/01 04:23:29;;;;;;;22.70;15.00;;;;;;;10.77;100.00;102206.84;5058119;28;20120;-62
2023/10/01 04:26:05;;;;;;;23.02;15.30;;;;;;;10.79;100.00;102203.81;5052634;28;20483;-62
2023/10/01 04:28:34;;;;;;;21.88;14.45;;;;;;;10.80;100.00;102213.78;5064550;28;20028;-62
2023/10/01 04:31:03;;;;;;;23.73;14.57;;;;;;;10.81;100.00;102212.69;5068097;28;20059;-62
2023/10/01 04:33:29;;;;;;;24.95;15.25;;;;;;;10.81;100.00;102211.84;5058368;28;20047;-63
2023/10/01 04:35:55;;;;;;;22.95;15.05;;;;;;;10.81;100.00;102209.06;5071229;28;20036;-62
2023/10/01 04:38:32;;;;;;;25.30;15.45;;;;;;;10.84;100.00;102211.28;5072402;28;20108;-62
2023/10/01 04:40:58;;;;;;;23.90;14.88;;;;;;;10.81;100.00;102201.63;5069891;28;20040;-62
2023/10/01 04:43:26;;;;;;;22.83;14.30;;;;;;;10.85;100.00;102201.88;5072051;28;20135;-62
2023/10/01 04:45:52;;;;;;;23.75;14.95;;;;;;;10.86;100.00;102203.56;5065287;28;20020;-62
2023/10/01 04:48:22;;;;;;;23.92;15.10;;;;;;;10.85;100.00;102210.19;5064029;28;20470;-62
2023/10/01 04:50:53;;;;;;;23.88;15.05;;;;;;;10.85;100.00;102208.25;5060737;28;20033;-62
2023/10/01 04:53:25;;;;;;;23.48;14.98;;;;;;;10.84;100.00;102205.75;5072067;28;20051;-63
2023/10/01 04:56:00;;;;;;;24.67;15.30;;;;;;;10.84;100.00;102211.28;5067441;28;20434;-62
2023/10/01 04:58:32;;;;;;;23.95;15.55;;;;;;;10.85;100.00;102212.97;5051774;28;20039;-63
2023/10/01 05:00:58;;;;;;;23.45;15.05;;;;;;;10.85;100.00;102213.78;5055395;28;20039;-62
2023/10/01 05:03:40;;;;;;;22.58;15.35;;;;;;;10.87;100.00;102219.03;5063880;28;20078;-62
2023/10/01 05:06:11;;;;;;;23.35;15.07;;;;;;;10.87;100.00;102213.50;5050420;28;20391;-63
2023/10/01 05:08:40;;;;;;;23.55;15.75;;;;;;;10.87;100.00;102214.34;5052194;28;20106;-62
2023/10/01 05:11:13;;;;;;;24.00;15.40;;;;;;;10.86;100.00;102203.56;5070870;28;20047;-63
2023/10/01 05:13:39;;;;;;;;;;;;;;;10.90;100.00;102207.41;5063619;28;20032;-62
2023/10/01 05:16:06;;;;;;;22.63;14.30;;;;;;;10.86;100.00;102204.38;5071651;28;19956;-62
2023/10/01 05:18:33;;;;;;;22.00;14.15;;;;;;;10.85;100.00;102211.00;5070475;28;20123;-62
2023/10/01 05:20:59;;;;;;;23.48;15.00;;;;;;;10.85;100.00;102204.66;5060801;28;20488;-62
2023/10/01 05:23:27;;;;;;;24.00;15.30;;;;;;;10.83;100.00;102210.44;5060176;28;20074;-62
2023/10/01 05:25:56;;;;;;;22.35;14.80;;;;;;;10.80;100.00;102224.84;5055072;28;20025;-62
2023/10/01 05:28:31;;;;;;;23.08;15.27;;;;;;;10.80;100.00;102221.25;5053169;28;20368;-62
2023/10/01 05:31:00;;;;;;;22.58;15.35;;;;;;;10.77;100.00;102217.09;5061864;28;20032;-62
2023/10/01 05:33:27;;;;;;;24.58;15.32;;;;;;;10.76;100.00;102224.56;5062945;28;20035;-62
2023/10/01 05:35:57;;;;;;;23.50;15.38;;;;;;;10.76;100.00;102220.97;5063459;28;20036;-62
2023/10/01 05:38:26;;;;;;;22.20;14.95;;;;;;;10.74;100.00;102223.16;5063211;28;20029;-62
2023/10/01 05:40:54;;;;;;;21.90;15.38;;;;;;;10.74;100.00;102220.41;5069569;28;20364;-62
2023/10/01 05:43:23;;;;;;;23.67;15.10;;;;;;;10.75;100.00;102225.69;5070771;28;20081;-62
2023/10/01 05:45:52;;;;;;;23.17;14.77;;;;;;;10.75;100.00;102235.91;5054838;28;20028;-63
2023/10/01 05:48:19;;;;;;;22.95;15.50;;;;;;;10.76;100.00;102230.13;5060873;28;20546;-62
2023/10/01 05:50:46;;;;;;;22.13;14.82;;;;;;;10.74;100.00;102232.31;5062540;28;20036;-63
2023/10/01 05:53:13;;;;;;;22.38;14.13;;;;;;;10.74;100.00;102229.56;5060786;28;20080;-63
2023/10/01 05:55:39;;;;;;;22.45;14.10;;;;;;;10.73;100.00;102227.88;5062306;28;20160;-63
2023/10/01 05:58:16;;;;;;;23.52;13.93;;;;;;;10.75;100.00;102222.91;5069153;28;20043;-63
2023/10/01 06:00:45;;;;;;;23.88;14.15;;;;;;;10.77;100.00;102231.75;5057758;28;20028;-63
2023/10/01 06:03:13;;;;;;;24.40;14.55;;;;;;;10.78;100.00;102224.28;5050365;28;20029;-63
2023/10/01 06:05:49;;;;;;;22.58;13.60;;;;;;;10.79;100.00;102216.81;5065734;28;20037;-63
2023/10/01 06:08:17;;;;;;;22.42;13.98;;;;;;;10.86;100.00;102228.47;5051413;28;20036;-63
2023/10/01 06:11:04;;;;;;;22.73;14.15;;;;;;;10.88;100.00;102226.22;5057622;28;20102;-64
2023/10/01 06:13:30;;;;;;;22.67;13.90;;;;;;;10.91;100.00;102225.69;5058844;28;20035;-63
2023/10/01 06:16:11;;;;;;;23.52;14.55;;;;;;;10.93;100.00;102229.03;5035973;28;20029;-63
2023/10/01 06:18:49;;;;;;;24.27;14.02;;;;;;;11.01;100.00;102234.03;5053087;28;20112;-63
2023/10/01 06:21:17;;;;;;;22.88;13.80;;;;;;;11.04;100.00;102238.16;5062820;28;20052;-63
2023/10/01 06:23:49;;;;;;;23.70;14.23;;;;;;;11.07;100.00;102226.56;5063428;28;20059;-63
2023/10/01 06:26:29;;;;;;;23.05;14.40;;;;;;;11.13;100.00;102224.63;5074569;28;20025;-63
2023/10/01 06:28:55;;;;;;;23.42;13.65;;;;;;;11.18;100.00;102232.91;5066054;28;20128;-63
2023/10/01 06:31:20;;;;;;;24.40;13.75;;;;;;;11.22;100.00;102229.31;5066135;28;20062;-63
2023/10/01 06:33:46;;;;;;;22.85;14.65;;;;;;;11.30;100.00;102239.03;5064689;28;20437;-63
2023/10/01 06:36:15;;;;;;;24.75;14.25;;;;;;;11.36;100.00;102243.44;5057466;28;20035;-64
2023/10/01 06:38:44;;;;;;;23.33;14.05;;;;;;;11.43;100.00;102234.88;5057620;28;20028;-64
2023/10/01 06:41:13;;;;;;;24.60;14.82;;;;;;;11.50;100.00;102226.28;5069458;28;20489;-63
2023/10/01 06:43:49;;;;;;;24.30;14.95;;;;;;;11.56;100.00;102222.38;5054643;28;20033;-64
2023/10/01 06:46:19;;;;;;;24.75;15.00;;;;;;;11.62;100.00;102215.69;5071083;28;20025;-64
2023/10/01 06:48:47;;;;;;;23.83;14.15;;;;;;;11.70;100.00;102220.69;5055532;28;20167;-64
2023/10/01 06:51:19;;;;;;;23.15;15.55;;;;;;;11.76;100.00;102229.81;5063749;28;20040;-64
2023/10/01 06:53:45;;;;;;;24.20;14.77;;;;;;;11.82;100.00;102220.41;5072531;28;20380;-64
2023/10/01 06:56:15;;;;;;;26.10;16.58;;;;;;;11.88;100.00;102223.16;5071492;28;20035;-64
2023/10/01 06:58:41;;;;;;;27.38;16.60;;;;;;;11.94;100.00;102233.94;5054596;28;20033;-65
2023/10/01 07:01:33;;;;;;;25.77;15.80;;;;;;;12.01;100.00;102220.63;5072884;28;20048;-65
2023/10/01 07:03:51;;;;;;;22.30;15.05;;;;;;;12.08;100.00;102220.34;5060841;28;20033;-65
2023/10/01 07:06:17;;;;;;;23.88;15.57;;;;;;;12.15;100.00;102223.63;5073873;28;20032;-65
2023/10/01 07:08:43;;;;;;;23.90;15.50;;;;;;;12.21;100.00;102212.53;5067743;28;20028;-64
2023/10/01 07:11:11;;;;;;;24.48;15.68;;;;;;;12.31;100.00;102216.09;5066390;28;20094;-66
2023/10/01 07:13:40;;;;;;;25.48;16.40;;;;;;;12.45;100.00;102230.19;5049070;28;20437;-66
2023/10/01 07:16:07;;;;;;;23.00;14.82;;;;;;;12.52;100.00;102227.09;5063557;28;20492;-66
2023/10/01 07:18:37;;;;;;;25.23;15.48;;;;;;;12.58;100.00;102234.28;5062556;28;20036;-65
2023/10/01 07:21:11;;;;;;;25.98;16.38;;;;;;;12.63;100.00;102230.63;5069368;28;20064;-65
2023/10/01 07:23:37;;;;;;;26.52;15.68;;;;;;;12.73;100.00;102229.75;5069141;28;20021;-65
2023/10/01 07:26:05;;;;;;;26.17;16.65;;;;;;;12.78;100.00;102238.03;5064766;28;20079;-64
2023/10/01 07:28:31;;;;;;;24.13;15.85;;;;;;;12.85;100.00;102237.72;5072050;28;20490;-64
2023/10/01 07:31:01;;;;;;;24.35;16.08;;;;;;;12.95;100.00;102234.88;5066601;28;20128;-64
2023/10/01 07:33:28;;;;;;;25.23;15.80;;;;;;;13.06;100.00;102235.63;5061976;28;20038;-64
2023/10/01 07:36:00;;;;;;;25.98;15.82;;;;;;;13.13;100.00;102230.56;5068502;28;20041;-64
2023/10/01 07:38:31;;;;;;;24.35;15.35;;;;;;;13.22;100.00;102226.09;5073572;28;20086;-64
2023/10/01 07:40:59;;;;;;;24.98;15.20;;;;;;;13.34;100.00;102227.63;5072995;28;20090;-64
2023/10/01 07:43:28;;;;;;;25.10;14.85;;;;;;;13.47;100.00;102237.28;5064296;28;20035;-64
2023/10/01 07:45:58;;;;;;;23.75;14.57;;;;;;;13.55;100.00;102243.06;5066652;28;20113;-64
2023/10/01 07:48:27;;;;;;;25.98;14.80;;;;;;;13.66;100.00;102246.56;5063713;28;20061;-64
2023/10/01 07:50:54;;;;;;;23.27;14.63;;;;;;;13.76;100.00;102242.84;5062301;28;20154;-64
2023/10/01 07:53:20;;;;;;;23.25;15.00;;;;;;;13.88;100.00;102251.63;5046908;28;20119;-64
2023/10/01 07:55:46;;;;;;;24.65;14.90;;;;;;;14.00;100.00;102255.94;5053493;28;20029;-63
2023/10/01 08:01:32;;;;;;;25.17;15.10;;;;;;;14.17;100.00;102245.16;5053473;28;20117;-64
2023/10/01 08:03:55;;;;;;;23.92;14.65;;;;;;;14.29;100.00;102249.50;5063855;28;20051;-63
2023/10/01 08:06:29;;;;;;;22.98;14.68;;;;;;;14.35;100.00;102243.56;5056186;28;20032;-63
2023/10/01 08:08:57;;;;;;;25.65;14.40;;;;;;;14.46;100.00;102240.66;5061378;28;20028;-63
2023/10/01 08:14:07;;;;;;;26.05;14.88;;;;;;;14.64;100.00;102250.19;5057179;28;20047;-63
2023/10/01 08:16:47;;;;;;;25.38;14.52;;;;;;;14.72;100.00;102248.69;5063351;28;20119;-63
2023/10/01 08:19:13;;;;;;;24.10;14.25;;;;;;;14.80;100.00;102256.38;5052407;28;20516;-64
2023/10/01 08:21:48;;;;;;;23.88;14.55;;;;;;;14.88;100.00;102258.47;5061731;28;20061;-64
2023/10/01 08:24:18;;;;;;;25.00;14.48;;;;;;;14.97;100.00;102258.63;5061371;28;20048;-64
2023/10/01 08:27:04;;;;;;;25.73;15.38;;;;;;;15.05;100.00;102257.13;5063645;28;20029;-64
2023/10/01 08:29:59;;;;;;;24.27;14.38;;;;;;;15.17;100.00;102268.63;5053025;28;20104;-64
2023/10/01 08:32:22;;;;;;;24.77;14.70;;;;;;;15.26;100.00;102260.41;5057477;28;20171;-63
2023/10/01 08:35:05;;;;;;;24.90;14.75;;;;;;;15.33;100.00;102266.44;5061964;28;20039;-63
2023/10/01 08:37:37;;;;;;;24.77;14.80;;;;;;;15.44;100.00;102264.31;5071470;28;20554;-64
2023/10/01 08:40:14;;;;;;;23.33;14.05;;;;;;;15.54;100.00;102261.31;5071293;28;20448;-65
2023/10/01 08:42:47;;;;;;;24.75;15.15;;;;;;;15.62;100.00;102259.81;5070491;28;20024;-63
2023/10/01 08:45:17;;;;;;;24.35;14.90;;;;;;;15.72;100.00;102268.00;5072093;28;20138;-63
2023/10/01 08:47:45;;;;;;;24.27;14.75;;;;;;;15.81;100.00;102250.53;5071502;28;20032;-64
2023/10/01 08:50:27;;;;;;;25.20;14.93;;;;;;;15.89;100.00;102259.06;5071711;28;20039;-64
2023/10/01 08:53:11;;;;;;;23.55;14.57;;;;;;;16.05;100.00;102253.19;5071969;28;20396;-64
2023/10/01 08:56:04;;;;;;;23.30;15.13;;;;;;;16.15;100.00;102258.56;5071334;28;20032;-63
2023/10/01 09:01:10;;;;;;;25.23;14.80;;;;;;;16.35;100.00;102256.50;5071441;28;20506;-63
2023/10/01 09:03:36;;;;;;;26.73;14.80;;;;;;;16.45;100.00;102247.91;5070857;28;20507;-64
2023/10/01 09:06:24;;;;;;;25.90;14.30;;;;;;;16.59;100.00;102244.25;5070907;28;20055;-64
2023/10/01 09:08:54;;;;;;;23.98;14.30;;;;;;;16.77;100.00;102259.22;5071003;28;20071;-64
2023/10/01 09:11:32;;;;;;;25.98;14.65;;;;;;;16.93;100.00;102254.13;5071620;28;20025;-64
2023/10/01 09:13:58;;;;;;;24.23;14.90;;;;;;;17.10;100.00;102262.66;5071793;28;20028;-64
2023/10/01 09:16:31;;;;;;;25.90;15.23;;;;;;;17.25;100.00;102252.25;5071699;28;20032;-65
2023/10/01 09:19:03;;;;;;;25.67;14.93;;;;;;;17.34;100.00;102247.53;5071730;28;20082;-64
2023/10/01 09:21:38;;;;;;;26.42;14.57;;;;;;;17.44;100.00;102235.28;5071934;28;20042;-64
2023/10/01 09:24:33;;;;;;;25.77;15.10;;;;;;;17.49;100.00;102254.72;5071862;28;20105;-65
2023/10/01 09:27:09;;;;;;;25.58;15.43;;;;;;;17.53;100.00;102240.91;5071409;28;20515;-64
2023/10/01 09:29:43;;;;;;;24.63;15.80;;;;;;;17.56;100.00;102246.72;5071944;28;20117;-64
2023/10/01 09:32:11;;;;;;;24.02;15.90;;;;;;;17.62;100.00;102236.19;5071553;28;20024;-64
2023/10/01 09:34:46;;;;;;;26.02;15.93;;;;;;;17.61;100.00;102237.34;5071711;28;20021;-65
2023/10/01 09:37:30;;;;;;;25.10;15.10;;;;;;;17.57;100.00;102231.56;5071752;28;20392;-64
2023/10/01 09:39:56;;;;;;;;;;;;;;;17.64;100.00;102230.28;5072225;28;20123;-64
2023/10/01 09:42:28;;;;;;;25.88;15.27;;;;;;;17.67;100.00;102230.47;5071075;28;20019;-64
2023/10/01 09:45:09;;;;;;;25.77;15.63;;;;;;;17.66;100.00;102228.81;5071396;28;20519;-65
2023/10/01 09:47:35;;;;;;;25.42;15.57;;;;;;;17.67;100.00;102236.06;5071490;28;20123;-64
2023/10/01 09:50:03;;;;;;;24.77;15.07;;;;;;;17.68;100.00;102232.13;5071248;28;20165;-65
2023/10/01 09:52:48;;;;;;;25.27;14.80;;;;;;;17.71;100.00;102222.25;5071569;28;20116;-64
2023/10/01 09:55:26;;;;;;;25.33;14.15;;;;;;;17.78;100.00;102231.84;5071392;28;20028;-63
2023/10/01 09:57:54;;;;;;;26.33;15.38;;;;;;;17.82;100.00;102228.38;5071417;28;20028;-64
2023/10/01 10:00:21;;;;;;;26.55;15.80;;;;;;;17.90;100.00;102236.03;5071162;28;20428;-65
2023/10/01 10:02:54;;;;;;;24.75;14.95;;;;;;;17.96;100.00;102239.47;5071444;28;20035;-64
2023/10/01 10:05:26;;;;;;;25.23;14.70;;;;;;;18.00;100.00;102243.31;5071189;28;20111;-65
2023/10/01 10:07:53;;;;;;;23.57;15.10;;;;;;;18.10;100.00;102240.25;5071114;28;20071;-64
2023/10/01 10:10:24;;;;;;;24.58;14.88;;;;;;;18.19;100.00;102243.06;5071231;28;20032;-64
2023/10/01 10:12:53;;;;;;;23.67;14.80;;;;;;;18.29;99.46;102236.34;5071188;28;20063;-65
2023/10/01 10:15:54;;;;;;;23.40;14.93;;;;;;;18.45;100.00;102234.72;5071086;28;20025;-65
2023/10/01 10:18:23;;;;;;;24.98;14.93;;;;;;;18.57;100.00;102227.66;5071158;28;20104;-65
2023/10/01 10:21:05;;;;;;;24.10;14.30;;;;;;;18.68;99.23;102235.41;5071035;28;20464;-64
2023/10/01 10:23:52;;;;;;;23.42;14.18;;;;;;;18.81;99.66;102230.00;5070841;28;20448;-65
2023/10/01 10:26:43;;;;;;;25.05;15.23;;;;;;;18.93;99.38;102226.56;5070863;28;20037;-65
2023/10/01 10:29:12;;;;;;;25.48;15.75;;;;;;;19.05;98.65;102223.94;5062287;28;20040;-64
2023/10/01 10:31:43;;;;;;;23.42;15.07;;;;;;;19.14;97.96;102227.53;5070865;28;20024;-65
2023/10/01 10:34:22;;;;;;;27.77;16.00;;;;;;;19.17;96.46;102220.44;5071086;28;20050;-65
2023/10/01 10:36:53;;;;;;;25.45;14.65;;;;;;;19.19;95.59;102226.56;5053757;28;20041;-65
2023/10/01 10:39:50;;;;;;;24.52;14.57;;;;;;;19.26;95.97;102220.44;5071064;28;20028;-65
2023/10/01 10:42:29;;;;;;;24.17;13.65;;;;;;;19.30;96.31;102224.22;5070650;28;20088;-65
2023/10/01 10:45:19;;;;;;;24.52;13.55;;;;;;;19.39;96.10;102221.41;5070866;28;20029;-65
2023/10/01 10:48:01;;;;;;;25.10;13.88;;;;;;;19.47;95.24;102201.72;5070890;28;20036;-66
2023/10/01 10:50:58;;;;;;;26.80;13.70;;;;;;;19.55;94.87;102204.84;5070558;28;20651;-65
2023/10/01 10:53:44;;;;;;;24.23;13.63;;;;;;;19.67;94.70;102209.78;5070762;28;20036;-65
2023/10/01 10:56:13;;;;;;;23.23;13.88;;;;;;;19.68;93.41;102212.22;5071040;28;20046;-65
2023/10/01 10:58:46;;;;;;;26.15;13.82;;;;;;;19.81;94.38;102201.94;5070798;28;20132;-65
2023/10/01 11:01:17;;;;;;;24.42;14.02;;;;;;;19.85;92.95;102208.56;5070798;28;20025;-65
2023/10/01 11:03:48;;;;;;;24.15;13.60;;;;;;;19.93;93.84;102212.50;5070873;28;20032;-64
2023/10/01 11:07:01;;;;;;;23.17;13.60;;;;;;;20.01;92.93;102205.19;5072652;28;20031;-65
2023/10/01 11:09:27;;;;;;;23.13;12.95;;;;;;;20.08;91.87;102197.88;5074468;28;20456;-65
2023/10/01 11:12:08;;;;;;;24.58;14.20;;;;;;;20.18;91.29;102198.66;5074222;28;20115;-65
2023/10/01 11:14:35;;;;;;;24.35;13.75;;;;;;;20.24;91.22;102195.31;5074590;28;20197;-64
2023/10/01 11:17:00;;;;;;;24.10;14.02;;;;;;;20.33;91.35;102189.63;5074253;28;20025;-64
2023/10/01 11:19:27;;;;;;;23.48;13.93;;;;;;;20.41;91.14;102188.75;5074076;28;20043;-64
2023/10/01 11:22:00;;;;;;;24.15;13.77;;;;;;;20.51;89.94;102186.69;5074232;28;20029;-65
2023/10/01 11:24:41;;;;;;;22.63;13.17;;;;;;;20.56;90.33;102184.50;5074085;28;20067;-65
2023/10/01 11:27:17;;;;;;;22.20;12.43;;;;;;;20.64;87.87;102176.38;5073683;28;20028;-65
2023/10/01 11:29:54;;;;;;;23.42;13.48;;;;;;;20.69;87.18;102184.56;5074051;28;20046;-64
2023/10/01 11:32:19;;;;;;;22.75;13.00;;;;;;;20.81;87.16;102173.44;5073729;28;20062;-64
2023/10/01 11:34:46;;;;;;;23.08;13.25;;;;;;;20.94;87.70;102171.47;5073793;28;20024;-65
2023/10/01 11:37:18;;;;;;;23.42;13.05;;;;;;;21.07;86.03;102165.88;5073773;28;20028;-65
2023/10/01 11:39:52;;;;;;;23.80;12.93;;;;;;;21.09;83.91;102164.41;5055739;28;20515;-65
2023/10/01 11:42:35;;;;;;;23.02;13.52;;;;;;;21.16;85.91;102167.44;5073696;28;20119;-64
2023/10/01 11:45:28;;;;;;;22.30;12.98;;;;;;;21.27;84.05;102164.19;5073782;28;20094;-63
2023/10/01 11:48:05;;;;;;;22.70;13.00;;;;;;;21.27;82.17;102158.56;5073814;28;20028;-64
2023/10/01 11:50:31;;;;;;;22.80;13.43;;;;;;;21.35;83.78;102164.09;5073538;28;20021;-63